Pearl II — 9HA2950 — position and weather

sailwx.info

Track history (hours):
 
Tides and Currents Weather Stations Pressure Air Temp Water Temp Dewpoint Dewpoint Depression Visibility Wind Speed Wind Dir Waves Ship Positions

Pearl II

Last reported at 2019-Apr-22 13:44 UTC. Time now 2019-Apr-26 04:32 UTC.
Position N 36°30' W 009°02'.

Length 164 m; draft 6 m.

Type: Ship. MMSI: 256878000.

Date/timePositionNaut miles runAvg speedWind from/ knotsBaromVisibWave heightAir tempDewpointWater temp
2019-Apr-22 13:44N 36°30' W 009°02'910.0
2019-Apr-22 12:52N 36°33' W 009°12'21 9.9
2019-Apr-22 10:43N 36°47' W 009°31'2 9.8
2019-Apr-22 10:30N 36°49' W 009°33'2810.8
2019-Apr-22 07:54N 37°17' W 009°40'513.3
2019-Apr-22 07:30N 37°22' W 009°42'713.2
2019-Apr-22 07:00N 37°28' W 009°45'713.4
2019-Apr-22 06:30N 37°35' W 009°46'713.0
2019-Apr-22 05:57N 37°42' W 009°48'613.4
2019-Apr-22 05:30N 37°47' W 009°50'713.6
2019-Apr-22 05:00N 37°54' W 009°52'713.5
2019-Apr-22 04:30N 38°01' W 009°54'713.3
2019-Apr-22 04:00N 38°07' W 009°56'713.3
2019-Apr-22 03:30N 38°14' W 009°58'713.3
2019-Apr-22 03:00N 38°20' W 009°60'713.4
2019-Apr-22 02:30N 38°27' W 010°02'713.4
2019-Apr-22 02:00N 38°33' W 010°04'713.3
2019-Apr-22 01:30N 38°40' W 010°06'713.4
2019-Apr-22 01:00N 38°46' W 010°06'612.9
2019-Apr-22 00:30N 38°53' W 010°07'613.0
2019-Apr-22 00:00N 38°59' W 010°07'713.1
2019-Apr-21 23:30N 39°06' W 010°08'713.6
2019-Apr-21 23:00N 39°13' W 010°08'713.2
2019-Apr-21 22:30N 39°19' W 010°08'713.7
2019-Apr-21 22:00N 39°26' W 010°09'713.4
2019-Apr-21 21:30N 39°33' W 010°09'713.5
2019-Apr-21 21:00N 39°39' W 010°09'713.6
2019-Apr-21 20:30N 39°46' W 010°08'714.0
2019-Apr-21 20:00N 39°53' W 010°07'714.2
2019-Apr-21 19:30N 40°00' W 010°07'714.1
2019-Apr-21 19:00N 40°07' W 010°07'714.3
2019-Apr-21 18:30N 40°14' W 010°07'714.1
2019-Apr-21 18:00N 40°22' W 010°07'713.9
2019-Apr-21 17:30N 40°28' W 010°07'713.9
2019-Apr-21 17:00N 40°35' W 010°07'713.9
2019-Apr-21 16:31N 40°42' W 010°07'49213.2
2019-Apr-20 03:13N 48°25' W 006°11'211.4
2019-Apr-20 03:00N 48°27' W 006°10'2011.6
2019-Apr-20 01:19N 48°44' W 005°55'3713.6
2019-Apr-19 22:35N 49°07' W 005°10'4313.8
2019-Apr-19 19:30N 49°34' W 004°19'612.2
2019-Apr-19 19:00N 49°38' W 004°12'611.7
2019-Apr-19 18:30N 49°41' W 004°04'611.4
2019-Apr-19 18:00N 49°44' W 003°57'611.3
2019-Apr-19 17:30N 49°47' W 003°50'611.4
2019-Apr-19 17:00N 49°51' W 003°43'611.7
2019-Apr-19 16:30N 49°54' W 003°35'612.3
2019-Apr-19 16:00N 49°58' W 003°28'713.1
2019-Apr-19 15:30N 50°02' W 003°20'714.0
2019-Apr-19 15:00N 50°07' W 003°12'714.7
2019-Apr-19 14:30N 50°12' W 003°03'714.0
2019-Apr-19 14:00N 50°16' W 002°55'5 9.5
2019-Apr-19 13:30N 50°19' W 002°49'815.3
2019-Apr-19 12:57N 50°24' W 002°38'1414.9
2019-Apr-19 12:02N 50°34' W 002°23'012.3
2019-Apr-19 12:00N 50°34' W 002°23'2 1.8
2019-Apr-19 10:53N 50°34' W 002°26'0 0.0
2019-Apr-19 10:20N 50°34' W 002°26'0 0.0
2019-Apr-19 09:56N 50°34' W 002°26'0 0.0
2019-Apr-19 09:22N 50°34' W 002°26'0 0.0
2019-Apr-19 08:58N 50°34' W 002°26'0 0.0
2019-Apr-19 08:25N 50°34' W 002°26'0 0.0
2019-Apr-19 07:58N 50°34' W 002°26'0 0.0
2019-Apr-19 07:31N 50°34' W 002°26'0 0.0
2019-Apr-19 07:00N 50°34' W 002°26'0 0.0
2019-Apr-19 06:30N 50°34' W 002°26'0 0.0
2019-Apr-19 06:00N 50°34' W 002°26'0 0.0
2019-Apr-19 05:27N 50°34' W 002°26'0 0.0
2019-Apr-19 04:59N 50°34' W 002°26'0 0.0
2019-Apr-19 04:26N 50°34' W 002°26'0 0.0
2019-Apr-19 03:59N 50°34' W 002°26'0 0.0
2019-Apr-19 03:29N 50°34' W 002°26'0 0.0
2019-Apr-19 02:59N 50°34' W 002°26'0 0.0
2019-Apr-19 02:16N 50°34' W 002°26'0 0.0
2019-Apr-19 01:58N 50°34' W 002°26'0 0.0
2019-Apr-19 01:25N 50°34' W 002°26'0 0.0
2019-Apr-19 00:58N 50°34' W 002°26'0 0.0
2019-Apr-19 00:21N 50°34' W 002°26'0 0.0
2019-Apr-19 00:00N 50°34' W 002°26'0 0.0
2019-Apr-18 23:30N 50°34' W 002°26'0 0.0
2019-Apr-18 22:54N 50°34' W 002°26'0 0.0
2019-Apr-18 22:30N 50°34' W 002°26'0 0.0
2019-Apr-18 21:53N 50°34' W 002°26'0 0.0
2019-Apr-18 21:26N 50°34' W 002°26'0 0.0
2019-Apr-18 20:56N 50°34' W 002°26'0 0.0
2019-Apr-18 20:26N 50°34' W 002°26'0 0.0
2019-Apr-18 19:55N 50°34' W 002°26'0 0.0
2019-Apr-18 19:25N 50°34' W 002°26'0 0.0
2019-Apr-18 18:43N 50°34' W 002°26'0 0.0
2019-Apr-18 18:16N 50°34' W 002°26'0 0.0
2019-Apr-18 17:58N 50°34' W 002°26'0 0.0
2019-Apr-18 17:27N 50°34' W 002°26'0 0.0
2019-Apr-18 17:00N 50°34' W 002°26'0 0.0
2019-Apr-18 16:21N 50°34' W 002°26'0 0.0
2019-Apr-18 16:00N 50°34' W 002°26'0 0.0
2019-Apr-18 15:20N 50°34' W 002°26'0 0.0
2019-Apr-18 14:59N 50°34' W 002°26'0 0.0
2019-Apr-18 14:25N 50°34' W 002°26'0 0.0
2019-Apr-18 13:49N 50°34' W 002°26'0 0.0
2019-Apr-18 13:30N 50°34' W 002°26'0 0.0
2019-Apr-18 13:00N 50°34' W 002°26'0 0.0
2019-Apr-18 12:30N 50°34' W 002°26'0 0.0
2019-Apr-18 11:39N 50°34' W 002°26'0 0.0
2019-Apr-18 11:17N 50°34' W 002°26'0 0.0
2019-Apr-18 10:59N 50°34' W 002°26'0 0.0
2019-Apr-18 10:29N 50°34' W 002°26'0 0.0
2019-Apr-18 09:59N 50°34' W 002°26'0 0.0
2019-Apr-18 09:29N 50°34' W 002°26'0 0.0
2019-Apr-18 08:59N 50°34' W 002°26'0 0.0
2019-Apr-18 08:25N 50°34' W 002°26'0 0.0
2019-Apr-18 07:49N 50°34' W 002°26'0 0.0
2019-Apr-18 07:25N 50°34' W 002°26'0 0.0
2019-Apr-18 06:58N 50°34' W 002°26'0 0.0
2019-Apr-18 06:27N 50°34' W 002°26'0 0.0
2019-Apr-18 05:57N 50°34' W 002°26'0 0.0
2019-Apr-18 05:30N 50°34' W 002°26'0 0.0
2019-Apr-18 05:00N 50°34' W 002°26'0 0.0
2019-Apr-18 04:20N 50°34' W 002°26'0 0.0
2019-Apr-18 03:08N 50°34' W 002°26'0 0.0
2019-Apr-18 02:47N 50°34' W 002°26'0 0.0
2019-Apr-18 02:29N 50°34' W 002°26'0 0.0
2019-Apr-18 01:55N 50°34' W 002°26'0 0.0
2019-Apr-18 00:58N 50°34' W 002°26'0 0.0
2019-Apr-18 00:28N 50°34' W 002°26'0 0.0
2019-Apr-17 23:49N 50°34' W 002°26'0 0.0
2019-Apr-17 23:30N 50°34' W 002°26'0 0.0
2019-Apr-17 23:00N 50°34' W 002°26'0 0.0
2019-Apr-17 21:45N 50°34' W 002°26'0 0.0
2019-Apr-17 21:17N 50°34' W 002°26'0 0.0
2019-Apr-17 20:56N 50°34' W 002°26'0 0.0
2019-Apr-17 20:29N 50°34' W 002°26'0 0.0
2019-Apr-17 19:59N 50°34' W 002°26'0 0.0
2019-Apr-17 19:29N 50°34' W 002°26'0 0.0
2019-Apr-17 18:58N 50°34' W 002°26'0 0.0
2019-Apr-17 18:28N 50°34' W 002°26'0 0.0
2019-Apr-17 17:58N 50°34' W 002°26'0 0.0
2019-Apr-17 17:28N 50°34' W 002°26'0 0.0
2019-Apr-17 16:58N 50°34' W 002°26'0 0.0
2019-Apr-17 16:30N 50°34' W 002°26'0 0.0
2019-Apr-17 15:54N 50°34' W 002°26'0 0.0
2019-Apr-17 15:30N 50°34' W 002°26'0 0.0
2019-Apr-17 14:57N 50°34' W 002°26'0 0.0
2019-Apr-17 14:26N 50°34' W 002°26'0 0.0
2019-Apr-17 13:59N 50°34' W 002°26'0 0.0
2019-Apr-17 13:30N 50°34' W 002°26'0 0.0
2019-Apr-17 12:58N 50°34' W 002°26'0 0.0
2019-Apr-17 12:28N 50°34' W 002°26'0 0.0
2019-Apr-17 11:58N 50°34' W 002°26'0 0.0
2019-Apr-17 11:28N 50°34' W 002°26'0 0.0
2019-Apr-17 10:58N 50°34' W 002°26'0 0.0
2019-Apr-17 10:12N 50°34' W 002°26'0 0.0
2019-Apr-17 09:54N 50°34' W 002°26'0 0.0
2019-Apr-17 09:30N 50°34' W 002°26'0 0.0
2019-Apr-17 09:00N 50°34' W 002°26'0 0.0
2019-Apr-17 08:28N 50°34' W 002°26'0 0.0
2019-Apr-17 07:52N 50°34' W 002°26'0 0.0
2019-Apr-17 07:28N 50°34' W 002°26'0 0.0
2019-Apr-17 06:58N 50°34' W 002°26'0 0.0
2019-Apr-17 06:28N 50°34' W 002°26'0 0.0
2019-Apr-17 06:00N 50°34' W 002°26'0 0.0
2019-Apr-17 05:30N 50°34' W 002°26'0 0.0
2019-Apr-17 05:00N 50°34' W 002°26'0 0.0
2019-Apr-17 04:30N 50°34' W 002°26'0 0.0
2019-Apr-17 03:59N 50°34' W 002°26'0 0.0
2019-Apr-17 03:26N 50°34' W 002°26'0 0.0
2019-Apr-17 02:59N 50°34' W 002°26'0 0.0
2019-Apr-17 02:29N 50°34' W 002°26'0 0.0
2019-Apr-17 01:59N 50°34' W 002°26'0 0.0
2019-Apr-17 01:25N 50°34' W 002°26'0 0.0
2019-Apr-17 00:58N 50°34' W 002°26'0 0.0
2019-Apr-17 00:28N 50°34' W 002°26'0 0.0
2019-Apr-16 23:58N 50°34' W 002°26'0 0.0
2019-Apr-16 23:31N 50°34' W 002°26'0 0.0
2019-Apr-16 23:00N 50°34' W 002°26'0 0.0
2019-Apr-16 22:30N 50°34' W 002°26'0 0.0
2019-Apr-16 22:00N 50°34' W 002°26'0 0.0
2019-Apr-16 21:30N 50°34' W 002°26'0 0.0
2019-Apr-16 20:59N 50°34' W 002°26'0 0.0
2019-Apr-16 20:29N 50°34' W 002°26'0 0.0
2019-Apr-16 19:59N 50°34' W 002°26'0 0.0
2019-Apr-16 19:29N 50°34' W 002°26'0 0.0
2019-Apr-16 18:56N 50°34' W 002°26'0 0.0
2019-Apr-16 18:28N 50°34' W 002°26'0 0.0
2019-Apr-16 17:58N 50°34' W 002°26'0 0.0
2019-Apr-16 17:28N 50°34' W 002°26'0 0.0
2019-Apr-16 16:58N 50°34' W 002°26'0 0.0
2019-Apr-16 16:12N 50°34' W 002°26'0 0.0
2019-Apr-16 16:00N 50°34' W 002°26'0 0.0
2019-Apr-16 15:30N 50°34' W 002°26'0 0.0
2019-Apr-16 14:57N 50°34' W 002°26'0 0.0
2019-Apr-16 14:30N 50°34' W 002°26'0 0.0
2019-Apr-16 13:59N 50°34' W 002°26'0 0.0
2019-Apr-16 13:30N 50°34' W 002°26'0 0.0
2019-Apr-16 13:00N 50°34' W 002°26'0 0.0
2019-Apr-16 12:30N 50°34' W 002°26'0 0.0
2019-Apr-16 12:00N 50°34' W 002°26'0 0.0
2019-Apr-16 11:27N 50°34' W 002°26'0 0.0
2019-Apr-16 10:56N 50°34' W 002°26'0 0.0
2019-Apr-16 10:29N 50°34' W 002°26'0 0.0
2019-Apr-16 09:59N 50°34' W 002°26'0 0.0
2019-Apr-16 09:29N 50°34' W 002°26'0 0.0
2019-Apr-16 08:52N 50°34' W 002°26'0 0.0
2019-Apr-16 08:28N 50°34' W 002°26'0 0.0
2019-Apr-16 07:58N 50°34' W 002°26'0 0.0
2019-Apr-16 07:13N 50°34' W 002°26'0 0.0
2019-Apr-16 06:58N 50°34' W 002°26'0 0.0
2019-Apr-16 06:30N 50°34' W 002°26'0 0.0
2019-Apr-16 06:00N 50°34' W 002°26'0 0.0
2019-Apr-16 05:30N 50°34' W 002°26'0 0.0
2019-Apr-16 05:00N 50°34' W 002°26'0 0.0
2019-Apr-16 04:30N 50°34' W 002°26'0 0.0
2019-Apr-16 03:59N 50°34' W 002°26'0 0.0
2019-Apr-16 03:29N 50°34' W 002°26'0 0.0
2019-Apr-16 02:59N 50°34' W 002°26'0 0.0
2019-Apr-16 02:29N 50°34' W 002°26'0 0.0
2019-Apr-16 01:58N 50°34' W 002°26'0 0.0
2019-Apr-16 01:28N 50°34' W 002°26'0 0.0
2019-Apr-16 00:58N 50°34' W 002°26'0 0.0
2019-Apr-16 00:28N 50°34' W 002°26'0 0.0
2019-Apr-15 23:58N 50°34' W 002°26'0 0.0
2019-Apr-15 23:30N 50°34' W 002°26'0 0.0
2019-Apr-15 22:57N 50°34' W 002°26'0 0.0
2019-Apr-15 22:30N 50°34' W 002°26'0 0.0
2019-Apr-15 22:00N 50°34' W 002°26'0 0.0
2019-Apr-15 21:30N 50°34' W 002°26'0 0.0
2019-Apr-15 20:59N 50°34' W 002°26'0 0.0
2019-Apr-15 20:29N 50°34' W 002°26'0 0.0
2019-Apr-15 19:59N 50°34' W 002°26'0 0.0
2019-Apr-15 19:29N 50°34' W 002°26'0 0.0
2019-Apr-15 18:58N 50°34' W 002°26'0 0.0
2019-Apr-15 18:13N 50°34' W 002°26'0 0.0
2019-Apr-15 17:52N 50°34' W 002°26'0 0.0
2019-Apr-15 17:25N 50°34' W 002°26'0 0.0
2019-Apr-15 16:58N 50°34' W 002°26'0 0.0
2019-Apr-15 16:27N 50°34' W 002°26'0 0.0
2019-Apr-15 15:54N 50°34' W 002°26'0 0.0
2019-Apr-15 15:27N 50°34' W 002°26'0 0.0
2019-Apr-15 14:14N 50°34' W 002°26'0 0.0
2019-Apr-15 13:38N 50°34' W 002°26'0 0.0
2019-Apr-15 12:59N 50°34' W 002°26'0 0.0
2019-Apr-15 11:34N 50°34' W 002°26'0 0.0
2019-Apr-15 11:10N 50°34' W 002°26'0 0.0
2019-Apr-15 10:22N 50°34' W 002°26'0 0.0
2019-Apr-15 09:51N 50°34' W 002°26'0 0.0
2019-Apr-15 09:27N 50°34' W 002°26'0 0.0
2019-Apr-15 08:33N 50°34' W 002°26'0 0.0
2019-Apr-15 08:09N 50°34' W 002°26'0 0.0
2019-Apr-15 07:26N 50°34' W 002°26'0 0.0
2019-Apr-15 06:32N 50°34' W 002°26'0 0.0
2019-Apr-15 05:26N 50°34' W 002°26'0 0.0
2019-Apr-15 04:13N 50°34' W 002°26'0 0.0
2019-Apr-15 02:12N 50°34' W 002°26'0 0.0
2019-Apr-15 01:48N 50°34' W 002°26'0 0.0
2019-Apr-15 01:06N 50°34' W 002°26'0 0.0
2019-Apr-14 23:53N 50°34' W 002°26'0 0.0
2019-Apr-14 23:23N 50°34' W 002°26'0 0.0
2019-Apr-14 22:59N 50°34' W 002°26'0 0.0
2019-Apr-14 21:52N 50°34' W 002°26'0 0.0
2019-Apr-14 20:16N 50°34' W 002°26'0 0.0
2019-Apr-14 19:45N 50°34' W 002°26'0 0.0
2019-Apr-14 19:15N 50°34' W 002°26'0 0.0
2019-Apr-14 18:33N 50°34' W 002°26'0 0.0
2019-Apr-14 17:45N 50°34' W 002°26'0 0.0
2019-Apr-13 02:20N 50°34' W 002°26'0 0.0
2019-Apr-13 01:56N 50°34' W 002°26'0 0.0
2019-Apr-13 00:56N 50°34' W 002°26'0 0.0
2019-Apr-12 23:07N 50°34' W 002°26'0 0.0
2019-Apr-12 22:18N 50°34' W 002°26'0 0.0
2019-Apr-12 21:36N 50°34' W 002°26'0 0.0
2019-Apr-12 21:30N 50°34' W 002°26'0 0.1
2019-Apr-12 20:44N 50°34' W 002°26'0 0.0
2019-Apr-12 20:20N 50°34' W 002°26'0 0.0
2019-Apr-12 19:25N 50°34' W 002°26'0 0.0
2019-Apr-12 18:37N 50°34' W 002°26'0 0.0
2019-Apr-12 18:13N 50°34' W 002°26'0 0.0
2019-Apr-12 17:27N 50°34' W 002°26'0 0.0
2019-Apr-12 16:35N 50°34' W 002°26'0 0.2
2019-Apr-12 16:30N 50°34' W 002°26'4 7.5
2019-Apr-12 15:56N 50°34' W 002°20'  
Track history (hours):
 
Tides and Currents Weather Stations Pressure Air Temp Water Temp Dewpoint Dewpoint Depression Visibility Wind Speed Wind Dir Waves Ship Positions

Pearl II

Last reported at 2019-Apr-22 13:44 UTC. Time now 2019-Apr-26 04:32 UTC.
Position N 36°30' W 009°02'.

Length 164 m; draft 6 m.

Type: Ship. MMSI: 256878000.

Date/timePositionNaut miles runAvg speedWind from/ knotsBaromVisibWave heightAir tempDewpointWater temp
2019-Apr-22 13:44N 36°30' W 009°02'910.0
2019-Apr-22 12:52N 36°33' W 009°12'21 9.9
2019-Apr-22 10:43N 36°47' W 009°31'2 9.8
2019-Apr-22 10:30N 36°49' W 009°33'2810.8
2019-Apr-22 07:54N 37°17' W 009°40'513.3
2019-Apr-22 07:30N 37°22' W 009°42'713.2
2019-Apr-22 07:00N 37°28' W 009°45'713.4
2019-Apr-22 06:30N 37°35' W 009°46'713.0
2019-Apr-22 05:57N 37°42' W 009°48'613.4
2019-Apr-22 05:30N 37°47' W 009°50'713.6
2019-Apr-22 05:00N 37°54' W 009°52'713.5
2019-Apr-22 04:30N 38°01' W 009°54'713.3
2019-Apr-22 04:00N 38°07' W 009°56'713.3
2019-Apr-22 03:30N 38°14' W 009°58'713.3
2019-Apr-22 03:00N 38°20' W 009°60'713.4
2019-Apr-22 02:30N 38°27' W 010°02'713.4
2019-Apr-22 02:00N 38°33' W 010°04'713.3
2019-Apr-22 01:30N 38°40' W 010°06'713.4
2019-Apr-22 01:00N 38°46' W 010°06'612.9
2019-Apr-22 00:30N 38°53' W 010°07'613.0
2019-Apr-22 00:00N 38°59' W 010°07'713.1
2019-Apr-21 23:30N 39°06' W 010°08'713.6
2019-Apr-21 23:00N 39°13' W 010°08'713.2
2019-Apr-21 22:30N 39°19' W 010°08'713.7
2019-Apr-21 22:00N 39°26' W 010°09'713.4
2019-Apr-21 21:30N 39°33' W 010°09'713.5
2019-Apr-21 21:00N 39°39' W 010°09'713.6
2019-Apr-21 20:30N 39°46' W 010°08'714.0
2019-Apr-21 20:00N 39°53' W 010°07'714.2
2019-Apr-21 19:30N 40°00' W 010°07'714.1
2019-Apr-21 19:00N 40°07' W 010°07'714.3
2019-Apr-21 18:30N 40°14' W 010°07'714.1
2019-Apr-21 18:00N 40°22' W 010°07'713.9
2019-Apr-21 17:30N 40°28' W 010°07'713.9
2019-Apr-21 17:00N 40°35' W 010°07'713.9
2019-Apr-21 16:31N 40°42' W 010°07'49213.2
2019-Apr-20 03:13N 48°25' W 006°11'211.4
2019-Apr-20 03:00N 48°27' W 006°10'2011.6
2019-Apr-20 01:19N 48°44' W 005°55'3713.6
2019-Apr-19 22:35N 49°07' W 005°10'4313.8
2019-Apr-19 19:30N 49°34' W 004°19'612.2
2019-Apr-19 19:00N 49°38' W 004°12'611.7
2019-Apr-19 18:30N 49°41' W 004°04'611.4
2019-Apr-19 18:00N 49°44' W 003°57'611.3
2019-Apr-19 17:30N 49°47' W 003°50'611.4
2019-Apr-19 17:00N 49°51' W 003°43'611.7
2019-Apr-19 16:30N 49°54' W 003°35'612.3
2019-Apr-19 16:00N 49°58' W 003°28'713.1
2019-Apr-19 15:30N 50°02' W 003°20'714.0
2019-Apr-19 15:00N 50°07' W 003°12'714.7
2019-Apr-19 14:30N 50°12' W 003°03'714.0
2019-Apr-19 14:00N 50°16' W 002°55'5 9.5
2019-Apr-19 13:30N 50°19' W 002°49'815.3
2019-Apr-19 12:57N 50°24' W 002°38'1414.9
2019-Apr-19 12:02N 50°34' W 002°23'012.3
2019-Apr-19 12:00N 50°34' W 002°23'2 1.8
2019-Apr-19 10:53N 50°34' W 002°26'0 0.0
2019-Apr-19 10:20N 50°34' W 002°26'0 0.0
2019-Apr-19 09:56N 50°34' W 002°26'0 0.0
2019-Apr-19 09:22N 50°34' W 002°26'0 0.0
2019-Apr-19 08:58N 50°34' W 002°26'0 0.0
2019-Apr-19 08:25N 50°34' W 002°26'0 0.0
2019-Apr-19 07:58N 50°34' W 002°26'0 0.0
2019-Apr-19 07:31N 50°34' W 002°26'0 0.0
2019-Apr-19 07:00N 50°34' W 002°26'0 0.0
2019-Apr-19 06:30N 50°34' W 002°26'0 0.0
2019-Apr-19 06:00N 50°34' W 002°26'0 0.0
2019-Apr-19 05:27N 50°34' W 002°26'0 0.0
2019-Apr-19 04:59N 50°34' W 002°26'0 0.0
2019-Apr-19 04:26N 50°34' W 002°26'0 0.0
2019-Apr-19 03:59N 50°34' W 002°26'0 0.0
2019-Apr-19 03:29N 50°34' W 002°26'0 0.0
2019-Apr-19 02:59N 50°34' W 002°26'0 0.0
2019-Apr-19 02:16N 50°34' W 002°26'0 0.0
2019-Apr-19 01:58N 50°34' W 002°26'0 0.0
2019-Apr-19 01:25N 50°34' W 002°26'0 0.0
2019-Apr-19 00:58N 50°34' W 002°26'0 0.0
2019-Apr-19 00:21N 50°34' W 002°26'0 0.0
2019-Apr-19 00:00N 50°34' W 002°26'0 0.0
2019-Apr-18 23:30N 50°34' W 002°26'0 0.0
2019-Apr-18 22:54N 50°34' W 002°26'0 0.0
2019-Apr-18 22:30N 50°34' W 002°26'0 0.0
2019-Apr-18 21:53N 50°34' W 002°26'0 0.0
2019-Apr-18 21:26N 50°34' W 002°26'0 0.0
2019-Apr-18 20:56N 50°34' W 002°26'0 0.0
2019-Apr-18 20:26N 50°34' W 002°26'0 0.0
2019-Apr-18 19:55N 50°34' W 002°26'0 0.0
2019-Apr-18 19:25N 50°34' W 002°26'0 0.0
2019-Apr-18 18:43N 50°34' W 002°26'0 0.0
2019-Apr-18 18:16N 50°34' W 002°26'0 0.0
2019-Apr-18 17:58N 50°34' W 002°26'0 0.0
2019-Apr-18 17:27N 50°34' W 002°26'0 0.0
2019-Apr-18 17:00N 50°34' W 002°26'0 0.0
2019-Apr-18 16:21N 50°34' W 002°26'0 0.0
2019-Apr-18 16:00N 50°34' W 002°26'0 0.0
2019-Apr-18 15:20N 50°34' W 002°26'0 0.0
2019-Apr-18 14:59N 50°34' W 002°26'0 0.0
2019-Apr-18 14:25N 50°34' W 002°26'0 0.0
2019-Apr-18 13:49N 50°34' W 002°26'0 0.0
2019-Apr-18 13:30N 50°34' W 002°26'0 0.0
2019-Apr-18 13:00N 50°34' W 002°26'0 0.0
2019-Apr-18 12:30N 50°34' W 002°26'0 0.0
2019-Apr-18 11:39N 50°34' W 002°26'0 0.0
2019-Apr-18 11:17N 50°34' W 002°26'0 0.0
2019-Apr-18 10:59N 50°34' W 002°26'0 0.0
2019-Apr-18 10:29N 50°34' W 002°26'0 0.0
2019-Apr-18 09:59N 50°34' W 002°26'0 0.0
2019-Apr-18 09:29N 50°34' W 002°26'0 0.0
2019-Apr-18 08:59N 50°34' W 002°26'0 0.0
2019-Apr-18 08:25N 50°34' W 002°26'0 0.0
2019-Apr-18 07:49N 50°34' W 002°26'0 0.0
2019-Apr-18 07:25N 50°34' W 002°26'0 0.0
2019-Apr-18 06:58N 50°34' W 002°26'0 0.0
2019-Apr-18 06:27N 50°34' W 002°26'0 0.0
2019-Apr-18 05:57N 50°34' W 002°26'0 0.0
2019-Apr-18 05:30N 50°34' W 002°26'0 0.0
2019-Apr-18 05:00N 50°34' W 002°26'0 0.0
2019-Apr-18 04:20N 50°34' W 002°26'0 0.0
2019-Apr-18 03:08N 50°34' W 002°26'0 0.0
2019-Apr-18 02:47N 50°34' W 002°26'0 0.0
2019-Apr-18 02:29N 50°34' W 002°26'0 0.0
2019-Apr-18 01:55N 50°34' W 002°26'0 0.0
2019-Apr-18 00:58N 50°34' W 002°26'0 0.0
2019-Apr-18 00:28N 50°34' W 002°26'0 0.0
2019-Apr-17 23:49N 50°34' W 002°26'0 0.0
2019-Apr-17 23:30N 50°34' W 002°26'0 0.0
2019-Apr-17 23:00N 50°34' W 002°26'0 0.0
2019-Apr-17 21:45N 50°34' W 002°26'0 0.0
2019-Apr-17 21:17N 50°34' W 002°26'0 0.0
2019-Apr-17 20:56N 50°34' W 002°26'0 0.0
2019-Apr-17 20:29N 50°34' W 002°26'0 0.0
2019-Apr-17 19:59N 50°34' W 002°26'0 0.0
2019-Apr-17 19:29N 50°34' W 002°26'0 0.0
2019-Apr-17 18:58N 50°34' W 002°26'0 0.0
2019-Apr-17 18:28N 50°34' W 002°26'0 0.0
2019-Apr-17 17:58N 50°34' W 002°26'0 0.0
2019-Apr-17 17:28N 50°34' W 002°26'0 0.0
2019-Apr-17 16:58N 50°34' W 002°26'0 0.0
2019-Apr-17 16:30N 50°34' W 002°26'0 0.0
2019-Apr-17 15:54N 50°34' W 002°26'0 0.0
2019-Apr-17 15:30N 50°34' W 002°26'0 0.0
2019-Apr-17 14:57N 50°34' W 002°26'0 0.0
2019-Apr-17 14:26N 50°34' W 002°26'0 0.0
2019-Apr-17 13:59N 50°34' W 002°26'0 0.0
2019-Apr-17 13:30N 50°34' W 002°26'0 0.0
2019-Apr-17 12:58N 50°34' W 002°26'0 0.0
2019-Apr-17 12:28N 50°34' W 002°26'0 0.0
2019-Apr-17 11:58N 50°34' W 002°26'0 0.0
2019-Apr-17 11:28N 50°34' W 002°26'0 0.0
2019-Apr-17 10:58N 50°34' W 002°26'0 0.0
2019-Apr-17 10:12N 50°34' W 002°26'0 0.0
2019-Apr-17 09:54N 50°34' W 002°26'0 0.0
2019-Apr-17 09:30N 50°34' W 002°26'0 0.0
2019-Apr-17 09:00N 50°34' W 002°26'0 0.0
2019-Apr-17 08:28N 50°34' W 002°26'0 0.0
2019-Apr-17 07:52N 50°34' W 002°26'0 0.0
2019-Apr-17 07:28N 50°34' W 002°26'0 0.0
2019-Apr-17 06:58N 50°34' W 002°26'0 0.0
2019-Apr-17 06:28N 50°34' W 002°26'0 0.0
2019-Apr-17 06:00N 50°34' W 002°26'0 0.0
2019-Apr-17 05:30N 50°34' W 002°26'0 0.0
2019-Apr-17 05:00N 50°34' W 002°26'0 0.0
2019-Apr-17 04:30N 50°34' W 002°26'0 0.0
2019-Apr-17 03:59N 50°34' W 002°26'0 0.0
2019-Apr-17 03:26N 50°34' W 002°26'0 0.0
2019-Apr-17 02:59N 50°34' W 002°26'0 0.0
2019-Apr-17 02:29N 50°34' W 002°26'0 0.0
2019-Apr-17 01:59N 50°34' W 002°26'0 0.0
2019-Apr-17 01:25N 50°34' W 002°26'0 0.0
2019-Apr-17 00:58N 50°34' W 002°26'0 0.0
2019-Apr-17 00:28N 50°34' W 002°26'0 0.0
2019-Apr-16 23:58N 50°34' W 002°26'0 0.0
2019-Apr-16 23:31N 50°34' W 002°26'0 0.0
2019-Apr-16 23:00N 50°34' W 002°26'0 0.0
2019-Apr-16 22:30N 50°34' W 002°26'0 0.0
2019-Apr-16 22:00N 50°34' W 002°26'0 0.0
2019-Apr-16 21:30N 50°34' W 002°26'0 0.0
2019-Apr-16 20:59N 50°34' W 002°26'0 0.0
2019-Apr-16 20:29N 50°34' W 002°26'0 0.0
2019-Apr-16 19:59N 50°34' W 002°26'0 0.0
2019-Apr-16 19:29N 50°34' W 002°26'0 0.0
2019-Apr-16 18:56N 50°34' W 002°26'0 0.0
2019-Apr-16 18:28N 50°34' W 002°26'0 0.0
2019-Apr-16 17:58N 50°34' W 002°26'0 0.0
2019-Apr-16 17:28N 50°34' W 002°26'0 0.0
2019-Apr-16 16:58N 50°34' W 002°26'0 0.0
2019-Apr-16 16:12N 50°34' W 002°26'0 0.0
2019-Apr-16 16:00N 50°34' W 002°26'0 0.0
2019-Apr-16 15:30N 50°34' W 002°26'0 0.0
2019-Apr-16 14:57N 50°34' W 002°26'0 0.0
2019-Apr-16 14:30N 50°34' W 002°26'0 0.0
2019-Apr-16 13:59N 50°34' W 002°26'0 0.0
2019-Apr-16 13:30N 50°34' W 002°26'0 0.0
2019-Apr-16 13:00N 50°34' W 002°26'0 0.0
2019-Apr-16 12:30N 50°34' W 002°26'0 0.0
2019-Apr-16 12:00N 50°34' W 002°26'0 0.0
2019-Apr-16 11:27N 50°34' W 002°26'0 0.0
2019-Apr-16 10:56N 50°34' W 002°26'0 0.0
2019-Apr-16 10:29N 50°34' W 002°26'0 0.0
2019-Apr-16 09:59N 50°34' W 002°26'0 0.0
2019-Apr-16 09:29N 50°34' W 002°26'0 0.0
2019-Apr-16 08:52N 50°34' W 002°26'0 0.0
2019-Apr-16 08:28N 50°34' W 002°26'0 0.0
2019-Apr-16 07:58N 50°34' W 002°26'0 0.0
2019-Apr-16 07:13N 50°34' W 002°26'0 0.0
2019-Apr-16 06:58N 50°34' W 002°26'0 0.0
2019-Apr-16 06:30N 50°34' W 002°26'0 0.0
2019-Apr-16 06:00N 50°34' W 002°26'0 0.0
2019-Apr-16 05:30N 50°34' W 002°26'0 0.0
2019-Apr-16 05:00N 50°34' W 002°26'0 0.0
2019-Apr-16 04:30N 50°34' W 002°26'0 0.0
2019-Apr-16 03:59N 50°34' W 002°26'0 0.0
2019-Apr-16 03:29N 50°34' W 002°26'0 0.0
2019-Apr-16 02:59N 50°34' W 002°26'0 0.0
2019-Apr-16 02:29N 50°34' W 002°26'0 0.0
2019-Apr-16 01:58N 50°34' W 002°26'0 0.0
2019-Apr-16 01:28N 50°34' W 002°26'0 0.0
2019-Apr-16 00:58N 50°34' W 002°26'0 0.0
2019-Apr-16 00:28N 50°34' W 002°26'0 0.0
2019-Apr-15 23:58N 50°34' W 002°26'0 0.0
2019-Apr-15 23:30N 50°34' W 002°26'0 0.0
2019-Apr-15 22:57N 50°34' W 002°26'0 0.0
2019-Apr-15 22:30N 50°34' W 002°26'0 0.0
2019-Apr-15 22:00N 50°34' W 002°26'0 0.0
2019-Apr-15 21:30N 50°34' W 002°26'0 0.0
2019-Apr-15 20:59N 50°34' W 002°26'0 0.0
2019-Apr-15 20:29N 50°34' W 002°26'0 0.0
2019-Apr-15 19:59N 50°34' W 002°26'0 0.0
2019-Apr-15 19:29N 50°34' W 002°26'0 0.0
2019-Apr-15 18:58N 50°34' W 002°26'0 0.0
2019-Apr-15 18:13N 50°34' W 002°26'0 0.0
2019-Apr-15 17:52N 50°34' W 002°26'0 0.0
2019-Apr-15 17:25N 50°34' W 002°26'0 0.0
2019-Apr-15 16:58N 50°34' W 002°26'0 0.0
2019-Apr-15 16:27N 50°34' W 002°26'0 0.0
2019-Apr-15 15:54N 50°34' W 002°26'0 0.0
2019-Apr-15 15:27N 50°34' W 002°26'0 0.0
2019-Apr-15 14:14N 50°34' W 002°26'0 0.0
2019-Apr-15 13:38N 50°34' W 002°26'0 0.0
2019-Apr-15 12:59N 50°34' W 002°26'0 0.0
2019-Apr-15 11:34N 50°34' W 002°26'0 0.0
2019-Apr-15 11:10N 50°34' W 002°26'0 0.0
2019-Apr-15 10:22N 50°34' W 002°26'0 0.0
2019-Apr-15 09:51N 50°34' W 002°26'0 0.0
2019-Apr-15 09:27N 50°34' W 002°26'0 0.0
2019-Apr-15 08:33N 50°34' W 002°26'0 0.0
2019-Apr-15 08:09N 50°34' W 002°26'0 0.0
2019-Apr-15 07:26N 50°34' W 002°26'0 0.0
2019-Apr-15 06:32N 50°34' W 002°26'0 0.0
2019-Apr-15 05:26N 50°34' W 002°26'0 0.0
2019-Apr-15 04:13N 50°34' W 002°26'0 0.0
2019-Apr-15 02:12N 50°34' W 002°26'0 0.0
2019-Apr-15 01:48N 50°34' W 002°26'0 0.0
2019-Apr-15 01:06N 50°34' W 002°26'0 0.0
2019-Apr-14 23:53N 50°34' W 002°26'0 0.0
2019-Apr-14 23:23N 50°34' W 002°26'0 0.0
2019-Apr-14 22:59N 50°34' W 002°26'0 0.0
2019-Apr-14 21:52N 50°34' W 002°26'0 0.0
2019-Apr-14 20:16N 50°34' W 002°26'0 0.0
2019-Apr-14 19:45N 50°34' W 002°26'0 0.0
2019-Apr-14 19:15N 50°34' W 002°26'0 0.0
2019-Apr-14 18:33N 50°34' W 002°26'0 0.0
2019-Apr-14 17:45N 50°34' W 002°26'0 0.0
2019-Apr-13 02:20N 50°34' W 002°26'0 0.0
2019-Apr-13 01:56N 50°34' W 002°26'0 0.0
2019-Apr-13 00:56N 50°34' W 002°26'0 0.0
2019-Apr-12 23:07N 50°34' W 002°26'0 0.0
2019-Apr-12 22:18N 50°34' W 002°26'0 0.0
2019-Apr-12 21:36N 50°34' W 002°26'0 0.0
2019-Apr-12 21:30N 50°34' W 002°26'0 0.1
2019-Apr-12 20:44N 50°34' W 002°26'0 0.0
2019-Apr-12 20:20N 50°34' W 002°26'0 0.0
2019-Apr-12 19:25N 50°34' W 002°26'0 0.0
2019-Apr-12 18:37N 50°34' W 002°26'0 0.0
2019-Apr-12 18:13N 50°34' W 002°26'0 0.0
2019-Apr-12 17:27N 50°34' W 002°26'0 0.0
2019-Apr-12 16:35N 50°34' W 002°26'0 0.2
2019-Apr-12 16:30N 50°34' W 002°26'4 7.5
2019-Apr-12 15:56N 50°34' W 002°20'  

Dump ship's entire track history